Terminal Aerodrome Forecast
Issued by NWS

Home | Current Version | Previous Version | Text Only | Print | Product List | Glossary On
Versions: 1 2 3 4 5 6 7 8 9 10 11 12 13
000
FTUS46 KPDT 012300
TAFYKM
TAF
KYKM 012340Z 0200/0224 28005KT P6SM FEW150 SCT250
     FM020200 31006KT P6SM FEW150 SCT200
     FM020800 28009KT P6SM FEW150
     FM021600 28007KT P6SM SCT150=

USA.gov is the U.S. government's official web portal to all federal, state and local government web resources and services.